sensor_id;sensor_type;location;lat;lon;timestamp;P1;durP1;ratioP1;P2;durP2;ratioP2
14740;SDS011;7462;53.530;9.414;2023-02-11T00:00:38;33.13;;;20.60;;
14740;SDS011;7462;53.530;9.414;2023-02-11T00:03:07;35.80;;;21.17;;
14740;SDS011;7462;53.530;9.414;2023-02-11T00:05:35;39.60;;;21.60;;
14740;SDS011;7462;53.530;9.414;2023-02-11T00:08:04;38.80;;;21.23;;
14740;SDS011;7462;53.530;9.414;2023-02-11T00:10:32;37.60;;;21.50;;
14740;SDS011;7462;53.530;9.414;2023-02-11T00:13:00;33.13;;;22.00;;
14740;SDS011;7462;53.530;9.414;2023-02-11T00:15:29;36.80;;;20.90;;
14740;SDS011;7462;53.530;9.414;2023-02-11T00:17:57;42.10;;;22.93;;
14740;SDS011;7462;53.530;9.414;2023-02-11T00:20:25;38.00;;;21.97;;
14740;SDS011;7462;53.530;9.414;2023-02-11T00:22:53;40.67;;;22.30;;
14740;SDS011;7462;53.530;9.414;2023-02-11T00:25:21;36.87;;;21.67;;
14740;SDS011;7462;53.530;9.414;2023-02-11T00:27:49;35.37;;;22.10;;
14740;SDS011;7462;53.530;9.414;2023-02-11T00:30:17;40.00;;;23.23;;
14740;SDS011;7462;53.530;9.414;2023-02-11T00:32:47;33.97;;;21.50;;
14740;SDS011;7462;53.530;9.414;2023-02-11T00:35:15;39.23;;;22.60;;
14740;SDS011;7462;53.530;9.414;2023-02-11T00:37:43;38.00;;;22.47;;
14740;SDS011;7462;53.530;9.414;2023-02-11T00:40:11;35.63;;;21.13;;
14740;SDS011;7462;53.530;9.414;2023-02-11T00:42:41;43.10;;;22.03;;
14740;SDS011;7462;53.530;9.414;2023-02-11T00:45:09;40.50;;;23.60;;
14740;SDS011;7462;53.530;9.414;2023-02-11T00:47:37;44.27;;;22.80;;
14740;SDS011;7462;53.530;9.414;2023-02-11T00:50:07;46.97;;;23.67;;
14740;SDS011;7462;53.530;9.414;2023-02-11T00:52:35;36.43;;;21.10;;
14740;SDS011;7462;53.530;9.414;2023-02-11T00:55:03;42.70;;;23.90;;
14740;SDS011;7462;53.530;9.414;2023-02-11T00:57:32;37.83;;;22.17;;
14740;SDS011;7462;53.530;9.414;2023-02-11T01:00:00;37.77;;;23.17;;
14740;SDS011;7462;53.530;9.414;2023-02-11T01:02:28;36.10;;;22.87;;
14740;SDS011;7462;53.530;9.414;2023-02-11T01:04:56;44.60;;;24.00;;
14740;SDS011;7462;53.530;9.414;2023-02-11T01:07:26;45.20;;;22.73;;
14740;SDS011;7462;53.530;9.414;2023-02-11T01:09:55;40.93;;;22.90;;
14740;SDS011;7462;53.530;9.414;2023-02-11T01:12:23;39.83;;;23.30;;
14740;SDS011;7462;53.530;9.414;2023-02-11T01:14:51;41.27;;;23.87;;
14740;SDS011;7462;53.530;9.414;2023-02-11T01:17:19;46.37;;;23.77;;
14740;SDS011;7462;53.530;9.414;2023-02-11T01:19:48;42.63;;;23.77;;
14740;SDS011;7462;53.530;9.414;2023-02-11T01:22:16;41.87;;;23.43;;
14740;SDS011;7462;53.530;9.414;2023-02-11T01:24:47;43.97;;;23.53;;
14740;SDS011;7462;53.530;9.414;2023-02-11T01:27:15;45.60;;;24.30;;
14740;SDS011;7462;53.530;9.414;2023-02-11T01:29:43;45.40;;;24.20;;
14740;SDS011;7462;53.530;9.414;2023-02-11T01:32:11;39.77;;;23.90;;
14740;SDS011;7462;53.530;9.414;2023-02-11T01:34:39;39.17;;;23.53;;
14740;SDS011;7462;53.530;9.414;2023-02-11T01:37:07;43.37;;;22.87;;
14740;SDS011;7462;53.530;9.414;2023-02-11T01:39:35;40.63;;;23.70;;
14740;SDS011;7462;53.530;9.414;2023-02-11T01:42:05;48.13;;;24.93;;
14740;SDS011;7462;53.530;9.414;2023-02-11T01:44:34;44.57;;;24.67;;
14740;SDS011;7462;53.530;9.414;2023-02-11T01:47:04;38.77;;;24.13;;
14740;SDS011;7462;53.530;9.414;2023-02-11T01:49:33;41.20;;;23.00;;
14740;SDS011;7462;53.530;9.414;2023-02-11T01:52:04;42.63;;;23.53;;
14740;SDS011;7462;53.530;9.414;2023-02-11T01:54:37;45.07;;;23.33;;
14740;SDS011;7462;53.530;9.414;2023-02-11T01:57:29;42.00;;;23.60;;
14740;SDS011;7462;53.530;9.414;2023-02-11T02:00:04;37.97;;;21.60;;
14740;SDS011;7462;53.530;9.414;2023-02-11T02:02:43;44.63;;;23.37;;
14740;SDS011;7462;53.530;9.414;2023-02-11T02:05:20;41.07;;;21.50;;
14740;SDS011;7462;53.530;9.414;2023-02-11T02:07:55;42.90;;;22.80;;
14740;SDS011;7462;53.530;9.414;2023-02-11T02:10:30;37.23;;;21.20;;
14740;SDS011;7462;53.530;9.414;2023-02-11T02:13:02;37.33;;;20.73;;
14740;SDS011;7462;53.530;9.414;2023-02-11T02:15:31;37.67;;;21.27;;
14740;SDS011;7462;53.530;9.414;2023-02-11T02:18:04;40.07;;;22.23;;
14740;SDS011;7462;53.530;9.414;2023-02-11T02:27:01;37.03;;;19.93;;
14740;SDS011;7462;53.530;9.414;2023-02-11T02:32:52;43.27;;;21.20;;
14740;SDS011;7462;53.530;9.414;2023-02-11T02:35:50;37.87;;;19.50;;
14740;SDS011;7462;53.530;9.414;2023-02-11T02:38:26;37.37;;;20.10;;
14740;SDS011;7462;53.530;9.414;2023-02-11T02:40:58;41.27;;;19.57;;
14740;SDS011;7462;53.530;9.414;2023-02-11T02:43:30;37.33;;;20.73;;
14740;SDS011;7462;53.530;9.414;2023-02-11T02:46:11;36.97;;;18.83;;
14740;SDS011;7462;53.530;9.414;2023-02-11T02:48:43;33.73;;;17.87;;
14740;SDS011;7462;53.530;9.414;2023-02-11T02:51:17;37.90;;;19.43;;
14740;SDS011;7462;53.530;9.414;2023-02-11T02:54:23;41.50;;;19.43;;
14740;SDS011;7462;53.530;9.414;2023-02-11T02:57:13;38.37;;;18.97;;
14740;SDS011;7462;53.530;9.414;2023-02-11T02:59:56;37.93;;;18.90;;
14740;SDS011;7462;53.530;9.414;2023-02-11T03:02:57;33.03;;;17.50;;
14740;SDS011;7462;53.530;9.414;2023-02-11T03:05:37;35.07;;;17.87;;
14740;SDS011;7462;53.530;9.414;2023-02-11T03:08:15;32.07;;;17.23;;
14740;SDS011;7462;53.530;9.414;2023-02-11T03:10:50;40.63;;;17.93;;
14740;SDS011;7462;53.530;9.414;2023-02-11T03:13:21;34.00;;;16.80;;
14740;SDS011;7462;53.530;9.414;2023-02-11T03:15:54;31.17;;;16.77;;
14740;SDS011;7462;53.530;9.414;2023-02-11T03:18:26;32.00;;;17.03;;
14740;SDS011;7462;53.530;9.414;2023-02-11T03:20:59;32.87;;;16.87;;
14740;SDS011;7462;53.530;9.414;2023-02-11T03:23:29;36.63;;;16.40;;
14740;SDS011;7462;53.530;9.414;2023-02-11T03:26:04;31.37;;;16.57;;
14740;SDS011;7462;53.530;9.414;2023-02-11T03:28:38;33.67;;;16.27;;
14740;SDS011;7462;53.530;9.414;2023-02-11T03:31:11;33.90;;;16.47;;
14740;SDS011;7462;53.530;9.414;2023-02-11T03:33:47;32.63;;;15.20;;
14740;SDS011;7462;53.530;9.414;2023-02-11T03:36:21;31.40;;;15.73;;
14740;SDS011;7462;53.530;9.414;2023-02-11T03:38:54;30.43;;;15.93;;
14740;SDS011;7462;53.530;9.414;2023-02-11T03:41:24;32.07;;;16.33;;
14740;SDS011;7462;53.530;9.414;2023-02-11T03:43:53;35.70;;;17.17;;
14740;SDS011;7462;53.530;9.414;2023-02-11T03:46:23;28.20;;;15.13;;
14740;SDS011;7462;53.530;9.414;2023-02-11T03:48:55;27.60;;;15.10;;
14740;SDS011;7462;53.530;9.414;2023-02-11T03:51:30;34.93;;;15.13;;
14740;SDS011;7462;53.530;9.414;2023-02-11T03:54:00;30.07;;;15.20;;
14740;SDS011;7462;53.530;9.414;2023-02-11T03:56:32;29.20;;;15.80;;
14740;SDS011;7462;53.530;9.414;2023-02-11T03:59:07;26.70;;;14.90;;
14740;SDS011;7462;53.530;9.414;2023-02-11T04:01:35;30.83;;;14.97;;
14740;SDS011;7462;53.530;9.414;2023-02-11T04:04:03;31.20;;;15.73;;
14740;SDS011;7462;53.530;9.414;2023-02-11T04:06:33;28.50;;;14.57;;
14740;SDS011;7462;53.530;9.414;2023-02-11T04:09:01;32.00;;;14.70;;
14740;SDS011;7462;53.530;9.414;2023-02-11T04:11:30;30.60;;;14.50;;
14740;SDS011;7462;53.530;9.414;2023-02-11T04:13:58;31.33;;;15.93;;
14740;SDS011;7462;53.530;9.414;2023-02-11T04:16:26;28.47;;;15.27;;
14740;SDS011;7462;53.530;9.414;2023-02-11T04:18:55;29.73;;;15.53;;
14740;SDS011;7462;53.530;9.414;2023-02-11T04:21:23;34.17;;;15.67;;
14740;SDS011;7462;53.530;9.414;2023-02-11T04:23:53;29.70;;;15.83;;
14740;SDS011;7462;53.530;9.414;2023-02-11T04:26:21;28.77;;;14.33;;
14740;SDS011;7462;53.530;9.414;2023-02-11T04:28:49;31.40;;;14.10;;
14740;SDS011;7462;53.530;9.414;2023-02-11T04:31:17;33.83;;;15.23;;
14740;SDS011;7462;53.530;9.414;2023-02-11T04:33:45;28.23;;;14.03;;
14740;SDS011;7462;53.530;9.414;2023-02-11T04:36:13;29.40;;;15.73;;
14740;SDS011;7462;53.530;9.414;2023-02-11T04:38:41;32.83;;;14.23;;
14740;SDS011;7462;53.530;9.414;2023-02-11T04:41:10;28.03;;;13.43;;
14740;SDS011;7462;53.530;9.414;2023-02-11T04:43:38;31.87;;;14.50;;
14740;SDS011;7462;53.530;9.414;2023-02-11T04:46:06;28.80;;;14.30;;
14740;SDS011;7462;53.530;9.414;2023-02-11T04:48:34;31.67;;;15.23;;
14740;SDS011;7462;53.530;9.414;2023-02-11T04:51:02;30.73;;;14.57;;
14740;SDS011;7462;53.530;9.414;2023-02-11T04:53:31;30.37;;;14.33;;
14740;SDS011;7462;53.530;9.414;2023-02-11T04:55:59;31.50;;;14.10;;
14740;SDS011;7462;53.530;9.414;2023-02-11T04:58:28;25.43;;;14.10;;
14740;SDS011;7462;53.530;9.414;2023-02-11T05:01:03;33.57;;;15.17;;
14740;SDS011;7462;53.530;9.414;2023-02-11T05:03:32;29.43;;;15.10;;
14740;SDS011;7462;53.530;9.414;2023-02-11T05:06:00;29.07;;;15.03;;
14740;SDS011;7462;53.530;9.414;2023-02-11T05:08:29;31.80;;;14.33;;
14740;SDS011;7462;53.530;9.414;2023-02-11T05:10:57;31.23;;;15.67;;
14740;SDS011;7462;53.530;9.414;2023-02-11T05:13:28;29.70;;;13.90;;
14740;SDS011;7462;53.530;9.414;2023-02-11T05:15:59;33.43;;;14.50;;
14740;SDS011;7462;53.530;9.414;2023-02-11T05:18:27;25.33;;;14.10;;
14740;SDS011;7462;53.530;9.414;2023-02-11T05:20:55;26.63;;;14.53;;
14740;SDS011;7462;53.530;9.414;2023-02-11T05:23:23;27.80;;;13.77;;
14740;SDS011;7462;53.530;9.414;2023-02-11T05:25:51;24.90;;;13.17;;
14740;SDS011;7462;53.530;9.414;2023-02-11T05:28:19;25.03;;;14.17;;
14740;SDS011;7462;53.530;9.414;2023-02-11T05:30:49;25.80;;;15.03;;
14740;SDS011;7462;53.530;9.414;2023-02-11T05:33:17;25.37;;;13.80;;
14740;SDS011;7462;53.530;9.414;2023-02-11T05:35:45;26.83;;;14.03;;
14740;SDS011;7462;53.530;9.414;2023-02-11T05:38:13;26.43;;;14.17;;
14740;SDS011;7462;53.530;9.414;2023-02-11T05:40:41;25.27;;;14.87;;
14740;SDS011;7462;53.530;9.414;2023-02-11T05:43:09;28.57;;;14.90;;
14740;SDS011;7462;53.530;9.414;2023-02-11T05:45:37;27.07;;;14.50;;
14740;SDS011;7462;53.530;9.414;2023-02-11T05:48:07;28.20;;;14.67;;
14740;SDS011;7462;53.530;9.414;2023-02-11T05:50:35;28.47;;;15.37;;
14740;SDS011;7462;53.530;9.414;2023-02-11T05:53:03;32.00;;;15.57;;
14740;SDS011;7462;53.530;9.414;2023-02-11T05:55:32;27.50;;;15.83;;
14740;SDS011;7462;53.530;9.414;2023-02-11T05:58:00;24.40;;;14.37;;
14740;SDS011;7462;53.530;9.414;2023-02-11T06:00:28;25.00;;;15.27;;
14740;SDS011;7462;53.530;9.414;2023-02-11T06:02:56;26.57;;;15.23;;
14740;SDS011;7462;53.530;9.414;2023-02-11T06:05:26;27.20;;;14.87;;
14740;SDS011;7462;53.530;9.414;2023-02-11T06:07:54;27.50;;;15.37;;
14740;SDS011;7462;53.530;9.414;2023-02-11T06:10:22;30.57;;;15.00;;
14740;SDS011;7462;53.530;9.414;2023-02-11T06:12:50;25.30;;;14.50;;
14740;SDS011;7462;53.530;9.414;2023-02-11T06:15:18;30.13;;;15.10;;
14740;SDS011;7462;53.530;9.414;2023-02-11T06:17:46;24.07;;;14.03;;
14740;SDS011;7462;53.530;9.414;2023-02-11T06:20:14;28.17;;;15.67;;
14740;SDS011;7462;53.530;9.414;2023-02-11T06:22:44;23.37;;;15.83;;
14740;SDS011;7462;53.530;9.414;2023-02-11T06:25:12;25.00;;;14.70;;
14740;SDS011;7462;53.530;9.414;2023-02-11T06:27:41;25.70;;;14.87;;
14740;SDS011;7462;53.530;9.414;2023-02-11T06:30:09;26.67;;;14.77;;
14740;SDS011;7462;53.530;9.414;2023-02-11T06:32:38;21.23;;;14.27;;
14740;SDS011;7462;53.530;9.414;2023-02-11T06:35:11;27.30;;;15.67;;
14740;SDS011;7462;53.530;9.414;2023-02-11T06:37:40;23.20;;;14.67;;
14740;SDS011;7462;53.530;9.414;2023-02-11T06:40:10;26.87;;;16.00;;
14740;SDS011;7462;53.530;9.414;2023-02-11T06:42:38;23.93;;;15.10;;
14740;SDS011;7462;53.530;9.414;2023-02-11T06:45:07;21.90;;;13.77;;
14740;SDS011;7462;53.530;9.414;2023-02-11T06:47:36;29.80;;;16.83;;
14740;SDS011;7462;53.530;9.414;2023-02-11T06:50:06;24.77;;;15.17;;
14740;SDS011;7462;53.530;9.414;2023-02-11T06:52:35;26.17;;;16.43;;
14740;SDS011;7462;53.530;9.414;2023-02-11T06:55:03;28.27;;;16.60;;
14740;SDS011;7462;53.530;9.414;2023-02-11T06:57:33;28.60;;;16.37;;
14740;SDS011;7462;53.530;9.414;2023-02-11T07:00:01;28.83;;;16.60;;
14740;SDS011;7462;53.530;9.414;2023-02-11T07:02:31;30.43;;;17.40;;
14740;SDS011;7462;53.530;9.414;2023-02-11T07:04:59;27.30;;;17.53;;
14740;SDS011;7462;53.530;9.414;2023-02-11T07:07:27;23.13;;;16.40;;
14740;SDS011;7462;53.530;9.414;2023-02-11T07:09:58;29.10;;;16.93;;
14740;SDS011;7462;53.530;9.414;2023-02-11T07:12:28;32.30;;;17.30;;
14740;SDS011;7462;53.530;9.414;2023-02-11T07:14:57;32.73;;;17.43;;
14740;SDS011;7462;53.530;9.414;2023-02-11T07:17:25;30.33;;;16.90;;
14740;SDS011;7462;53.530;9.414;2023-02-11T07:19:53;29.93;;;16.53;;
14740;SDS011;7462;53.530;9.414;2023-02-11T07:22:21;30.80;;;17.43;;
14740;SDS011;7462;53.530;9.414;2023-02-11T07:24:49;31.60;;;16.53;;
14740;SDS011;7462;53.530;9.414;2023-02-11T07:27:17;27.57;;;16.67;;
14740;SDS011;7462;53.530;9.414;2023-02-11T07:29:46;25.63;;;16.83;;
14740;SDS011;7462;53.530;9.414;2023-02-11T07:32:15;29.20;;;17.70;;
14740;SDS011;7462;53.530;9.414;2023-02-11T07:34:43;27.90;;;18.20;;
14740;SDS011;7462;53.530;9.414;2023-02-11T07:37:13;35.23;;;18.03;;
14740;SDS011;7462;53.530;9.414;2023-02-11T07:39:41;30.77;;;18.33;;
14740;SDS011;7462;53.530;9.414;2023-02-11T07:42:09;31.50;;;18.27;;
14740;SDS011;7462;53.530;9.414;2023-02-11T07:44:37;30.77;;;17.83;;
14740;SDS011;7462;53.530;9.414;2023-02-11T07:47:05;27.10;;;17.70;;
14740;SDS011;7462;53.530;9.414;2023-02-11T07:49:35;31.47;;;17.53;;
14740;SDS011;7462;53.530;9.414;2023-02-11T07:52:03;32.10;;;19.50;;
14740;SDS011;7462;53.530;9.414;2023-02-11T07:54:31;31.97;;;18.57;;
14740;SDS011;7462;53.530;9.414;2023-02-11T07:56:59;33.07;;;17.97;;
14740;SDS011;7462;53.530;9.414;2023-02-11T07:59:27;32.90;;;18.30;;
14740;SDS011;7462;53.530;9.414;2023-02-11T08:01:55;33.60;;;18.03;;
14740;SDS011;7462;53.530;9.414;2023-02-11T08:04:23;39.83;;;19.83;;
14740;SDS011;7462;53.530;9.414;2023-02-11T08:06:53;37.80;;;19.03;;
14740;SDS011;7462;53.530;9.414;2023-02-11T08:09:24;35.70;;;18.80;;
14740;SDS011;7462;53.530;9.414;2023-02-11T08:11:52;32.77;;;18.70;;
14740;SDS011;7462;53.530;9.414;2023-02-11T08:14:20;34.97;;;19.17;;
14740;SDS011;7462;53.530;9.414;2023-02-11T08:16:50;33.60;;;19.13;;
14740;SDS011;7462;53.530;9.414;2023-02-11T08:19:18;30.57;;;18.70;;
14740;SDS011;7462;53.530;9.414;2023-02-11T08:21:46;34.43;;;19.00;;
14740;SDS011;7462;53.530;9.414;2023-02-11T08:24:16;29.77;;;19.03;;
14740;SDS011;7462;53.530;9.414;2023-02-11T08:26:44;30.80;;;19.17;;
14740;SDS011;7462;53.530;9.414;2023-02-11T08:29:12;31.13;;;18.63;;
14740;SDS011;7462;53.530;9.414;2023-02-11T08:31:43;31.83;;;17.67;;
14740;SDS011;7462;53.530;9.414;2023-02-11T08:34:13;30.73;;;18.50;;
14740;SDS011;7462;53.530;9.414;2023-02-11T08:36:44;29.47;;;17.90;;
14740;SDS011;7462;53.530;9.414;2023-02-11T08:39:14;33.17;;;19.00;;
14740;SDS011;7462;53.530;9.414;2023-02-11T08:41:46;32.80;;;19.33;;
14740;SDS011;7462;53.530;9.414;2023-02-11T08:44:15;28.30;;;17.67;;
14740;SDS011;7462;53.530;9.414;2023-02-11T08:46:44;31.47;;;17.90;;
14740;SDS011;7462;53.530;9.414;2023-02-11T08:49:12;27.60;;;17.27;;
14740;SDS011;7462;53.530;9.414;2023-02-11T08:51:41;28.10;;;17.53;;
14740;SDS011;7462;53.530;9.414;2023-02-11T08:54:09;28.00;;;17.40;;
14740;SDS011;7462;53.530;9.414;2023-02-11T08:56:39;27.93;;;17.00;;
14740;SDS011;7462;53.530;9.414;2023-02-11T08:59:09;29.20;;;17.40;;
14740;SDS011;7462;53.530;9.414;2023-02-11T09:01:39;27.40;;;17.03;;
14740;SDS011;7462;53.530;9.414;2023-02-11T09:04:08;29.93;;;16.17;;
14740;SDS011;7462;53.530;9.414;2023-02-11T09:06:36;31.07;;;16.70;;
14740;SDS011;7462;53.530;9.414;2023-02-11T09:09:04;30.63;;;15.93;;
14740;SDS011;7462;53.530;9.414;2023-02-11T09:11:33;31.47;;;16.33;;
14740;SDS011;7462;53.530;9.414;2023-02-11T09:14:04;32.50;;;16.43;;
14740;SDS011;7462;53.530;9.414;2023-02-11T09:16:33;26.73;;;14.97;;
14740;SDS011;7462;53.530;9.414;2023-02-11T09:19:03;25.80;;;16.03;;
14740;SDS011;7462;53.530;9.414;2023-02-11T09:21:32;29.77;;;15.60;;
14740;SDS011;7462;53.530;9.414;2023-02-11T09:24:00;31.53;;;16.17;;
14740;SDS011;7462;53.530;9.414;2023-02-11T09:26:29;37.17;;;15.90;;
14740;SDS011;7462;53.530;9.414;2023-02-11T09:29:00;27.53;;;15.07;;
14740;SDS011;7462;53.530;9.414;2023-02-11T09:31:30;23.87;;;14.37;;
14740;SDS011;7462;53.530;9.414;2023-02-11T09:34:00;31.63;;;14.63;;
14740;SDS011;7462;53.530;9.414;2023-02-11T09:36:30;28.23;;;14.13;;
14740;SDS011;7462;53.530;9.414;2023-02-11T09:39:00;30.03;;;15.00;;
14740;SDS011;7462;53.530;9.414;2023-02-11T09:41:32;31.87;;;14.47;;
14740;SDS011;7462;53.530;9.414;2023-02-11T09:44:08;28.10;;;13.83;;
14740;SDS011;7462;53.530;9.414;2023-02-11T09:46:46;29.10;;;14.33;;
14740;SDS011;7462;53.530;9.414;2023-02-11T09:49:22;35.07;;;14.23;;
14740;SDS011;7462;53.530;9.414;2023-02-11T09:51:56;32.87;;;14.13;;
14740;SDS011;7462;53.530;9.414;2023-02-11T09:54:33;31.43;;;13.93;;
14740;SDS011;7462;53.530;9.414;2023-02-11T09:57:07;31.03;;;13.97;;
14740;SDS011;7462;53.530;9.414;2023-02-11T09:59:53;25.00;;;12.87;;
14740;SDS011;7462;53.530;9.414;2023-02-11T10:02:23;28.07;;;13.60;;
14740;SDS011;7462;53.530;9.414;2023-02-11T10:07:53;33.33;;;13.40;;
14740;SDS011;7462;53.530;9.414;2023-02-11T10:10:33;30.63;;;12.90;;
14740;SDS011;7462;53.530;9.414;2023-02-11T10:16:01;33.93;;;12.60;;
14740;SDS011;7462;53.530;9.414;2023-02-11T10:18:44;31.67;;;12.53;;
14740;SDS011;7462;53.530;9.414;2023-02-11T10:21:18;30.17;;;12.00;;
14740;SDS011;7462;53.530;9.414;2023-02-11T10:23:59;24.97;;;11.73;;
14740;SDS011;7462;53.530;9.414;2023-02-11T10:26:30;28.43;;;11.37;;
14740;SDS011;7462;53.530;9.414;2023-02-11T10:29:01;27.23;;;12.50;;
14740;SDS011;7462;53.530;9.414;2023-02-11T10:31:48;26.57;;;11.63;;
14740;SDS011;7462;53.530;9.414;2023-02-11T10:34:19;22.87;;;11.17;;
14740;SDS011;7462;53.530;9.414;2023-02-11T10:36:47;30.10;;;11.70;;
14740;SDS011;7462;53.530;9.414;2023-02-11T10:39:16;27.60;;;11.40;;
14740;SDS011;7462;53.530;9.414;2023-02-11T10:41:46;26.47;;;11.43;;
14740;SDS011;7462;53.530;9.414;2023-02-11T10:44:22;28.63;;;11.37;;
14740;SDS011;7462;53.530;9.414;2023-02-11T10:46:53;27.83;;;11.20;;
14740;SDS011;7462;53.530;9.414;2023-02-11T10:49:34;24.30;;;10.00;;
14740;SDS011;7462;53.530;9.414;2023-02-11T10:52:20;25.67;;;11.00;;
14740;SDS011;7462;53.530;9.414;2023-02-11T10:54:57;23.73;;;10.70;;
14740;SDS011;7462;53.530;9.414;2023-02-11T10:57:30;27.67;;;11.43;;
14740;SDS011;7462;53.530;9.414;2023-02-11T11:00:05;24.07;;;10.70;;
14740;SDS011;7462;53.530;9.414;2023-02-11T11:02:51;28.47;;;10.97;;
14740;SDS011;7462;53.530;9.414;2023-02-11T11:05:25;26.10;;;10.60;;
14740;SDS011;7462;53.530;9.414;2023-02-11T11:07:58;25.00;;;10.43;;
14740;SDS011;7462;53.530;9.414;2023-02-11T11:10:29;25.53;;;9.70;;
14740;SDS011;7462;53.530;9.414;2023-02-11T11:13:04;24.50;;;9.67;;
14740;SDS011;7462;53.530;9.414;2023-02-11T11:15:51;24.10;;;10.10;;
14740;SDS011;7462;53.530;9.414;2023-02-11T11:18:34;29.83;;;9.77;;
14740;SDS011;7462;53.530;9.414;2023-02-11T11:21:04;21.20;;;8.63;;
14740;SDS011;7462;53.530;9.414;2023-02-11T11:23:34;21.30;;;8.67;;
14740;SDS011;7462;53.530;9.414;2023-02-11T11:26:04;23.77;;;8.77;;
14740;SDS011;7462;53.530;9.414;2023-02-11T11:28:35;22.77;;;8.27;;
14740;SDS011;7462;53.530;9.414;2023-02-11T11:31:11;25.57;;;8.83;;
14740;SDS011;7462;53.530;9.414;2023-02-11T11:33:41;24.20;;;7.57;;
14740;SDS011;7462;53.530;9.414;2023-02-11T11:36:12;20.67;;;7.20;;
14740;SDS011;7462;53.530;9.414;2023-02-11T11:38:43;21.40;;;7.83;;
14740;SDS011;7462;53.530;9.414;2023-02-11T11:41:23;21.23;;;7.07;;
14740;SDS011;7462;53.530;9.414;2023-02-11T11:43:53;20.17;;;7.63;;
14740;SDS011;7462;53.530;9.414;2023-02-11T11:46:27;23.40;;;8.00;;
14740;SDS011;7462;53.530;9.414;2023-02-11T11:48:59;16.20;;;6.87;;
14740;SDS011;7462;53.530;9.414;2023-02-11T11:51:35;27.57;;;7.57;;
14740;SDS011;7462;53.530;9.414;2023-02-11T11:54:07;19.80;;;6.90;;
14740;SDS011;7462;53.530;9.414;2023-02-11T11:56:40;18.80;;;7.10;;
14740;SDS011;7462;53.530;9.414;2023-02-11T11:59:16;16.97;;;6.67;;
14740;SDS011;7462;53.530;9.414;2023-02-11T12:01:49;22.63;;;7.07;;
14740;SDS011;7462;53.530;9.414;2023-02-11T12:04:29;20.03;;;6.77;;
14740;SDS011;7462;53.530;9.414;2023-02-11T12:07:13;15.97;;;5.93;;
14740;SDS011;7462;53.530;9.414;2023-02-11T12:09:55;15.63;;;6.03;;
14740;SDS011;7462;53.530;9.414;2023-02-11T12:12:51;21.27;;;5.87;;
14740;SDS011;7462;53.530;9.414;2023-02-11T12:15:30;18.90;;;6.57;;
14740;SDS011;7462;53.530;9.414;2023-02-11T12:18:06;18.63;;;6.77;;
14740;SDS011;7462;53.530;9.414;2023-02-11T12:20:47;19.23;;;6.20;;
14740;SDS011;7462;53.530;9.414;2023-02-11T12:23:31;16.87;;;5.60;;
14740;SDS011;7462;53.530;9.414;2023-02-11T12:26:11;19.00;;;5.37;;
14740;SDS011;7462;53.530;9.414;2023-02-11T12:28:44;19.83;;;5.80;;
14740;SDS011;7462;53.530;9.414;2023-02-11T12:31:30;21.67;;;5.70;;
14740;SDS011;7462;53.530;9.414;2023-02-11T12:34:17;17.13;;;4.90;;
14740;SDS011;7462;53.530;9.414;2023-02-11T12:37:04;18.47;;;5.10;;
14740;SDS011;7462;53.530;9.414;2023-02-11T12:39:43;17.53;;;4.53;;
14740;SDS011;7462;53.530;9.414;2023-02-11T12:42:20;13.70;;;4.37;;
14740;SDS011;7462;53.530;9.414;2023-02-11T12:45:20;16.27;;;4.33;;
14740;SDS011;7462;53.530;9.414;2023-02-11T12:47:59;14.37;;;4.17;;
14740;SDS011;7462;53.530;9.414;2023-02-11T12:50:39;15.27;;;4.00;;
14740;SDS011;7462;53.530;9.414;2023-02-11T12:53:23;13.33;;;3.70;;
14740;SDS011;7462;53.530;9.414;2023-02-11T12:56:09;16.30;;;4.03;;
14740;SDS011;7462;53.530;9.414;2023-02-11T12:58:42;14.50;;;3.80;;
14740;SDS011;7462;53.530;9.414;2023-02-11T13:01:14;19.40;;;4.23;;
14740;SDS011;7462;53.530;9.414;2023-02-11T13:03:47;15.70;;;4.00;;
14740;SDS011;7462;53.530;9.414;2023-02-11T13:06:19;19.50;;;4.43;;
14740;SDS011;7462;53.530;9.414;2023-02-11T13:08:52;19.40;;;4.07;;
14740;SDS011;7462;53.530;9.414;2023-02-11T13:11:26;16.13;;;5.13;;
14740;SDS011;7462;53.530;9.414;2023-02-11T13:13:56;16.93;;;4.17;;
14740;SDS011;7462;53.530;9.414;2023-02-11T13:16:31;19.60;;;4.57;;
14740;SDS011;7462;53.530;9.414;2023-02-11T13:19:05;17.13;;;4.20;;
14740;SDS011;7462;53.530;9.414;2023-02-11T13:21:45;13.90;;;4.00;;
14740;SDS011;7462;53.530;9.414;2023-02-11T13:24:32;16.37;;;3.97;;
14740;SDS011;7462;53.530;9.414;2023-02-11T13:27:10;17.17;;;3.93;;
14740;SDS011;7462;53.530;9.414;2023-02-11T13:29:57;18.03;;;5.13;;
14740;SDS011;7462;53.530;9.414;2023-02-11T13:33:00;23.00;;;4.23;;
14740;SDS011;7462;53.530;9.414;2023-02-11T13:35:48;16.80;;;4.70;;
14740;SDS011;7462;53.530;9.414;2023-02-11T13:38:37;10.87;;;4.30;;
14740;SDS011;7462;53.530;9.414;2023-02-11T13:41:12;20.07;;;5.20;;
14740;SDS011;7462;53.530;9.414;2023-02-11T13:43:44;24.07;;;5.33;;
14740;SDS011;7462;53.530;9.414;2023-02-11T13:46:25;18.70;;;5.53;;
14740;SDS011;7462;53.530;9.414;2023-02-11T13:48:56;19.57;;;5.70;;
14740;SDS011;7462;53.530;9.414;2023-02-11T13:51:34;24.53;;;5.70;;
14740;SDS011;7462;53.530;9.414;2023-02-11T13:54:05;24.10;;;5.87;;
14740;SDS011;7462;53.530;9.414;2023-02-11T13:56:37;26.83;;;6.13;;
14740;SDS011;7462;53.530;9.414;2023-02-11T13:59:42;20.30;;;5.63;;
14740;SDS011;7462;53.530;9.414;2023-02-11T14:02:21;22.07;;;5.53;;
14740;SDS011;7462;53.530;9.414;2023-02-11T14:05:18;26.27;;;5.23;;
14740;SDS011;7462;53.530;9.414;2023-02-11T14:08:13;23.13;;;5.60;;
14740;SDS011;7462;53.530;9.414;2023-02-11T14:11:05;18.33;;;4.93;;
14740;SDS011;7462;53.530;9.414;2023-02-11T14:19:51;24.97;;;5.10;;
14740;SDS011;7462;53.530;9.414;2023-02-11T14:22:21;18.00;;;4.90;;
14740;SDS011;7462;53.530;9.414;2023-02-11T14:24:53;18.97;;;4.70;;
14740;SDS011;7462;53.530;9.414;2023-02-11T14:27:28;23.07;;;5.37;;
14740;SDS011;7462;53.530;9.414;2023-02-11T14:30:12;24.43;;;5.63;;
14740;SDS011;7462;53.530;9.414;2023-02-11T14:33:00;25.07;;;4.60;;
14740;SDS011;7462;53.530;9.414;2023-02-11T14:35:42;31.80;;;5.70;;
14740;SDS011;7462;53.530;9.414;2023-02-11T14:38:21;36.50;;;6.17;;
14740;SDS011;7462;53.530;9.414;2023-02-11T14:40:57;29.60;;;4.80;;
14740;SDS011;7462;53.530;9.414;2023-02-11T14:43:33;28.30;;;5.03;;
14740;SDS011;7462;53.530;9.414;2023-02-11T14:46:06;27.43;;;5.50;;
14740;SDS011;7462;53.530;9.414;2023-02-11T14:48:36;35.37;;;5.60;;
14740;SDS011;7462;53.530;9.414;2023-02-11T14:51:12;21.33;;;4.33;;
14740;SDS011;7462;53.530;9.414;2023-02-11T14:53:43;25.17;;;5.13;;
14740;SDS011;7462;53.530;9.414;2023-02-11T14:56:17;36.27;;;5.47;;
14740;SDS011;7462;53.530;9.414;2023-02-11T14:58:48;30.07;;;5.00;;
14740;SDS011;7462;53.530;9.414;2023-02-11T15:01:23;30.13;;;4.57;;
14740;SDS011;7462;53.530;9.414;2023-02-11T15:03:53;25.00;;;4.37;;
14740;SDS011;7462;53.530;9.414;2023-02-11T15:06:27;24.10;;;4.83;;
14740;SDS011;7462;53.530;9.414;2023-02-11T15:08:58;22.57;;;4.20;;
14740;SDS011;7462;53.530;9.414;2023-02-11T15:11:31;24.27;;;4.67;;
14740;SDS011;7462;53.530;9.414;2023-02-11T15:14:06;25.43;;;4.40;;
14740;SDS011;7462;53.530;9.414;2023-02-11T15:16:39;26.77;;;5.33;;
14740;SDS011;7462;53.530;9.414;2023-02-11T15:19:13;27.00;;;4.93;;
14740;SDS011;7462;53.530;9.414;2023-02-11T15:21:47;25.23;;;5.43;;
14740;SDS011;7462;53.530;9.414;2023-02-11T15:24:20;26.87;;;4.90;;
14740;SDS011;7462;53.530;9.414;2023-02-11T15:26:54;28.73;;;5.67;;
14740;SDS011;7462;53.530;9.414;2023-02-11T15:29:23;29.33;;;5.47;;
14740;SDS011;7462;53.530;9.414;2023-02-11T15:32:02;36.17;;;6.03;;